Terminal Aerodrome Forecast
Issued by NWS

Home | Current Version | Previous Version | Text Only | Print | Product List | Glossary On
Versions: 1 2 3 4 5 6 7 8 9 10 11 12 13 14 15 16 17
000
FTUS43 KDMX 230537
TAFMCW
TAF
KMCW 230537Z 2306/2406 17009KT 6SM -SHRA BR OVC040
     FM231200 21008KT 4SM BR BKN012
     FM231500 26007KT P6SM SKC
     FM232300 22005KT P6SM SKC=

USA.gov is the U.S. government's official web portal to all federal, state and local government web resources and services.